Terminal Aerodrome Forecast
Issued by NWS

Home | Current Version | Previous Version | Text Only | Print | Product List | Glossary On
Versions: 1 2 3 4 5 6 7 8 9 10 11 12 13 14 15 16
000
FTUS43 KAPX 171016 AAA
TAFTVC
TAF AMD
KTVC 171016Z 1710/1806 14007KT P6SM -SHRA SCT035 OVC060
      WS010/17030KT
     FM171200 14008KT P6SM SCT025 BKN035 OVC060 WS010/17030KT
     FM171400 15009KT 6SM -SHRA VCTS OVC025CB
     FM171800 17009KT P6SM VCTS BKN025CB
     FM172000 20009KT P6SM VCTS BKN025CB
     FM180000 22007KT P6SM VCSH BKN040
     FM180500 22008KT P6SM VCSH OVC015=

USA.gov is the U.S. government's official web portal to all federal, state and local government web resources and services.